createdAt,value
2019-03-17T00:00:43.654Z,0.00
2019-03-17T00:01:43.550Z,0.00
2019-03-17T00:02:43.446Z,0.00
2019-03-17T00:03:43.341Z,0.00
2019-03-17T00:04:43.240Z,0.00
2019-03-17T00:05:43.134Z,0.00
2019-03-17T00:06:43.070Z,0.00
2019-03-17T00:07:42.931Z,0.00
2019-03-17T00:08:42.826Z,0.00
2019-03-17T00:09:42.724Z,0.00
2019-03-17T00:10:42.618Z,0.00
2019-03-17T00:11:42.516Z,0.00
2019-03-17T00:12:42.411Z,0.00
2019-03-17T00:13:42.309Z,0.00
2019-03-17T00:14:42.204Z,0.00
2019-03-17T00:15:42.103Z,0.00
2019-03-17T00:16:41.999Z,0.00
2019-03-17T00:17:42.076Z,0.00
2019-03-17T00:18:41.790Z,0.00
2019-03-17T00:19:41.690Z,0.00
2019-03-17T00:20:41.586Z,0.00
2019-03-17T00:21:41.484Z,0.00
2019-03-17T00:22:41.381Z,0.00
2019-03-17T00:23:41.278Z,0.00
2019-03-17T00:24:41.172Z,0.00
2019-03-17T00:25:41.122Z,0.00
2019-03-17T00:26:41.045Z,0.00
2019-03-17T00:27:40.865Z,0.00
2019-03-17T00:28:40.758Z,0.00
2019-03-17T00:29:40.686Z,0.00
2019-03-17T00:30:40.799Z,0.00
2019-03-17T00:31:40.450Z,0.00
2019-03-17T00:32:40.346Z,0.00
2019-03-17T00:33:40.244Z,0.00
2019-03-17T00:34:44.479Z,0.00
2019-03-17T00:35:40.035Z,0.00
2019-03-17T00:36:39.932Z,0.00
2019-03-17T00:37:39.831Z,0.00
2019-03-17T00:38:39.726Z,0.00
2019-03-17T00:39:39.623Z,0.00
2019-03-17T00:40:39.768Z,0.00
2019-03-17T00:41:39.416Z,0.00
2019-03-17T00:42:39.312Z,0.00
2019-03-17T00:43:39.209Z,0.00
2019-03-17T00:44:39.108Z,0.00
2019-03-17T00:45:39.036Z,0.00
2019-03-17T00:46:38.898Z,0.00
2019-03-17T00:47:38.796Z,0.00
2019-03-17T00:48:38.692Z,0.00
2019-03-17T00:49:38.589Z,0.00
2019-03-17T00:50:38.483Z,0.00
2019-03-17T00:51:38.382Z,0.00
2019-03-17T00:52:38.281Z,0.00
2019-03-17T00:53:38.176Z,0.00
2019-03-17T00:54:38.072Z,0.00
2019-03-17T00:55:37.968Z,0.00
2019-03-17T00:56:37.868Z,0.00
2019-03-17T00:57:37.765Z,0.00
2019-03-17T00:58:37.659Z,0.00
2019-03-17T00:59:37.559Z,0.00
2019-03-17T01:00:37.452Z,0.00
2019-03-17T01:01:37.349Z,0.00
2019-03-17T01:02:37.244Z,0.00
2019-03-17T01:03:37.141Z,0.00
2019-03-17T01:04:37.071Z,0.00
2019-03-17T01:05:37.012Z,0.00
2019-03-17T01:06:36.833Z,0.00
2019-03-17T01:07:36.732Z,0.00
2019-03-17T01:08:36.626Z,0.00
2019-03-17T01:09:36.524Z,0.00
2019-03-17T01:10:36.420Z,0.00
2019-03-17T01:11:36.318Z,0.00
2019-03-17T01:12:36.212Z,0.00
2019-03-17T01:13:36.110Z,0.00
2019-03-17T01:14:36.004Z,0.00
2019-03-17T01:15:35.902Z,0.00
2019-03-17T01:16:35.800Z,0.00
2019-03-17T01:17:35.694Z,0.00
2019-03-17T01:18:35.590Z,0.00
2019-03-17T01:19:35.488Z,0.00
2019-03-17T01:20:35.386Z,0.00
2019-03-17T01:21:35.279Z,0.00
2019-03-17T01:22:35.176Z,0.00
2019-03-17T01:23:35.075Z,0.00
2019-03-17T01:24:35.036Z,0.00
2019-03-17T01:25:34.868Z,0.00
2019-03-17T01:26:34.762Z,0.00
2019-03-17T01:27:34.661Z,0.00
2019-03-17T01:28:34.558Z,0.00
2019-03-17T01:29:34.454Z,0.00
2019-03-17T01:30:34.350Z,0.00
2019-03-17T01:31:34.249Z,0.00
2019-03-17T01:32:34.143Z,0.00
2019-03-17T01:33:34.043Z,0.00
2019-03-17T01:34:33.937Z,0.00
2019-03-17T01:35:33.857Z,0.00
2019-03-17T01:36:33.730Z,0.00
2019-03-17T01:37:33.625Z,0.00
2019-03-17T01:38:33.520Z,0.00
2019-03-17T01:39:33.419Z,0.00
2019-03-17T01:40:33.314Z,0.00
2019-03-17T01:41:33.216Z,0.00
2019-03-17T01:42:33.108Z,0.00
2019-03-17T01:43:33.016Z,0.00
2019-03-17T01:44:32.949Z,0.00
2019-03-17T01:45:32.798Z,0.00
2019-03-17T01:46:32.694Z,0.00
2019-03-17T01:47:32.593Z,0.00
2019-03-17T01:48:32.488Z,0.00
2019-03-17T01:49:32.385Z,0.00
2019-03-17T01:50:32.283Z,0.00
2019-03-17T01:51:32.183Z,0.00
2019-03-17T01:52:32.073Z,0.00
2019-03-17T01:53:31.971Z,0.00
2019-03-17T01:54:31.868Z,0.00
2019-03-17T01:55:31.765Z,0.00
2019-03-17T01:56:31.661Z,0.00
2019-03-17T01:57:31.593Z,0.00
2019-03-17T01:58:31.455Z,0.00
2019-03-17T01:59:31.357Z,0.00
2019-03-17T02:00:31.249Z,0.00
2019-03-17T02:01:31.145Z,0.00
2019-03-17T02:02:31.044Z,0.00
2019-03-17T02:03:31.001Z,0.00
2019-03-17T02:04:30.844Z,0.00
2019-03-17T02:05:30.735Z,0.00
2019-03-17T02:06:30.631Z,0.00
2019-03-17T02:07:30.524Z,0.00
2019-03-17T02:08:30.421Z,0.00
2019-03-17T02:09:30.317Z,0.00
2019-03-17T02:10:30.214Z,0.00
2019-03-17T02:11:30.112Z,0.00
2019-03-17T02:12:30.006Z,0.00
2019-03-17T02:13:29.905Z,0.00
2019-03-17T02:14:29.803Z,0.00
2019-03-17T02:15:29.697Z,0.00
2019-03-17T02:16:29.594Z,0.00
2019-03-17T02:17:29.489Z,0.00
2019-03-17T02:18:29.387Z,0.00
2019-03-17T02:19:29.281Z,0.00
2019-03-17T02:20:29.180Z,0.00
2019-03-17T02:21:29.081Z,0.00
2019-03-17T02:22:28.972Z,0.00
2019-03-17T02:23:28.898Z,0.00
2019-03-17T02:24:28.766Z,0.00
2019-03-17T02:25:28.964Z,0.00
2019-03-17T02:26:28.559Z,0.00
2019-03-17T02:27:28.459Z,0.00
2019-03-17T02:28:28.352Z,0.00
2019-03-17T02:29:28.251Z,0.00
2019-03-17T02:30:28.147Z,0.00
2019-03-17T02:31:28.045Z,0.00
2019-03-17T02:32:27.939Z,0.00
2019-03-17T02:33:27.836Z,0.00
2019-03-17T02:34:27.734Z,0.00
2019-03-17T02:35:38.585Z,0.00
2019-03-17T02:36:27.526Z,0.00
2019-03-17T02:37:27.430Z,0.00
2019-03-17T02:38:27.319Z,0.00
2019-03-17T02:39:27.235Z,0.00
2019-03-17T02:40:27.114Z,0.00
2019-03-17T02:41:27.030Z,0.00
2019-03-17T02:42:26.941Z,0.00
2019-03-17T02:43:26.885Z,0.00
2019-03-17T02:44:26.700Z,0.00
2019-03-17T02:45:26.596Z,0.00
2019-03-17T02:46:26.491Z,0.00
2019-03-17T02:47:26.390Z,0.00
2019-03-17T02:48:26.292Z,0.00
2019-03-17T02:49:26.185Z,0.00
2019-03-17T02:50:26.134Z,0.00
2019-03-17T02:51:25.981Z,0.00
2019-03-17T02:52:25.872Z,0.00
2019-03-17T02:53:25.771Z,0.00
2019-03-17T02:54:25.671Z,0.00
2019-03-17T02:55:25.562Z,0.00
2019-03-17T02:56:25.459Z,0.00
2019-03-17T02:57:25.358Z,0.00
2019-03-17T02:58:25.255Z,0.00
2019-03-17T02:59:25.149Z,0.00
2019-03-17T03:00:25.044Z,0.00
2019-03-17T03:01:24.942Z,0.00
2019-03-17T03:02:25.023Z,0.00
2019-03-17T03:03:24.735Z,0.00
2019-03-17T03:04:24.629Z,0.00
2019-03-17T03:05:24.529Z,0.00
2019-03-17T03:06:24.426Z,0.00
2019-03-17T03:07:24.326Z,0.00
2019-03-17T03:08:24.216Z,0.00
2019-03-17T03:09:24.114Z,0.00
2019-03-17T03:10:24.008Z,0.00
2019-03-17T03:11:23.908Z,0.00
2019-03-17T03:12:23.804Z,0.00
2019-03-17T03:13:23.699Z,0.00
2019-03-17T03:14:23.651Z,0.00
2019-03-17T03:15:23.500Z,0.00
2019-03-17T03:16:23.391Z,0.00
2019-03-17T03:17:23.284Z,0.00
2019-03-17T03:18:23.267Z,0.00
2019-03-17T03:19:23.081Z,0.00
2019-03-17T03:20:22.984Z,0.00
2019-03-17T03:21:22.902Z,0.00
2019-03-17T03:22:22.823Z,0.00
2019-03-17T03:23:22.665Z,0.00
2019-03-17T03:24:22.562Z,0.00
2019-03-17T03:25:22.466Z,0.00
2019-03-17T03:26:22.353Z,0.00
2019-03-17T03:27:22.252Z,0.00
2019-03-17T03:28:22.149Z,0.00
2019-03-17T03:29:22.059Z,0.00
2019-03-17T03:30:21.945Z,0.00
2019-03-17T03:31:21.839Z,0.00
2019-03-17T03:32:21.742Z,0.00
2019-03-17T03:33:21.633Z,0.00
2019-03-17T03:34:21.527Z,0.00
2019-03-17T03:35:21.424Z,0.00
2019-03-17T03:36:21.321Z,0.00
2019-03-17T03:37:21.216Z,0.00
2019-03-17T03:38:21.112Z,0.00
2019-03-17T03:39:21.011Z,0.00
2019-03-17T03:40:21.157Z,0.00
2019-03-17T03:41:20.880Z,0.00
2019-03-17T03:42:20.703Z,0.00
2019-03-17T03:43:20.600Z,0.00
2019-03-17T03:44:20.495Z,0.00
2019-03-17T03:45:20.389Z,0.00
2019-03-17T03:46:20.289Z,0.00
2019-03-17T03:47:20.183Z,0.00
2019-03-17T03:48:20.079Z,0.00
2019-03-17T03:49:19.977Z,0.00
2019-03-17T03:50:19.872Z,0.00
2019-03-17T03:51:19.767Z,0.00
2019-03-17T03:52:19.666Z,0.00
2019-03-17T03:53:19.561Z,0.00
2019-03-17T03:54:19.464Z,0.00
2019-03-17T03:55:19.378Z,0.00
2019-03-17T03:56:19.252Z,0.00
2019-03-17T03:57:19.148Z,0.00
2019-03-17T03:58:19.043Z,0.00
2019-03-17T03:59:18.943Z,0.00
2019-03-17T04:00:19.104Z,0.00
2019-03-17T04:01:18.813Z,0.00
2019-03-17T04:02:18.629Z,0.00
2019-03-17T04:03:18.527Z,0.00
2019-03-17T04:04:18.423Z,0.00
2019-03-17T04:05:18.319Z,0.00
2019-03-17T04:06:26.441Z,0.00
2019-03-17T04:07:18.115Z,0.00
2019-03-17T04:08:18.010Z,0.00
2019-03-17T04:09:17.908Z,0.00
2019-03-17T04:10:17.803Z,0.00
2019-03-17T04:11:17.697Z,0.00
2019-03-17T04:12:17.591Z,0.00
2019-03-17T04:13:17.491Z,0.00
2019-03-17T04:14:17.388Z,0.00
2019-03-17T04:15:17.291Z,0.00
2019-03-17T04:16:17.181Z,0.00
2019-03-17T04:17:17.075Z,0.00
2019-03-17T04:18:16.971Z,0.00
2019-03-17T04:19:16.871Z,0.00
2019-03-17T04:20:17.181Z,0.00
2019-03-17T04:21:16.677Z,0.00
2019-03-17T04:22:16.559Z,0.00
2019-03-17T04:23:16.457Z,0.00
2019-03-17T04:24:16.349Z,0.00
2019-03-17T04:25:16.247Z,0.00
2019-03-17T04:26:16.162Z,0.00
2019-03-17T04:27:16.039Z,0.00
2019-03-17T04:28:15.935Z,0.00
2019-03-17T04:29:15.834Z,0.00
2019-03-17T04:30:15.734Z,0.00
2019-03-17T04:31:15.625Z,0.00
2019-03-17T04:32:15.521Z,0.00
2019-03-17T04:33:15.420Z,0.00
2019-03-17T04:34:15.314Z,0.00
2019-03-17T04:35:15.210Z,0.00
2019-03-17T04:36:15.219Z,0.00
2019-03-17T04:37:15.003Z,0.00
2019-03-17T04:38:14.898Z,0.00
2019-03-17T04:39:14.816Z,0.00
2019-03-17T04:40:14.989Z,0.00
2019-03-17T04:41:14.590Z,0.00
2019-03-17T04:42:14.485Z,0.00
2019-03-17T04:43:14.380Z,0.00
2019-03-17T04:44:20.889Z,0.00
2019-03-17T04:45:14.172Z,0.00
2019-03-17T04:46:14.067Z,0.00
2019-03-17T04:47:13.966Z,0.00
2019-03-17T04:48:13.860Z,0.00
2019-03-17T04:49:13.758Z,0.00
2019-03-17T04:50:13.654Z,0.00
2019-03-17T04:51:13.553Z,0.00
2019-03-17T04:52:13.446Z,0.00
2019-03-17T04:53:13.342Z,0.00
2019-03-17T04:54:13.239Z,0.00
2019-03-17T04:55:13.136Z,0.00
2019-03-17T04:56:13.029Z,0.00
2019-03-17T04:57:12.926Z,0.00
2019-03-17T04:58:12.822Z,0.00
2019-03-17T04:59:12.774Z,0.00
2019-03-17T05:00:12.866Z,0.00
2019-03-17T05:01:12.511Z,0.00
2019-03-17T05:02:13.626Z,0.00
2019-03-17T05:03:12.303Z,0.00
2019-03-17T05:04:12.204Z,0.00
2019-03-17T05:05:12.095Z,0.00
2019-03-17T05:06:11.992Z,0.00
2019-03-17T05:07:11.886Z,0.00
2019-03-17T05:08:11.784Z,0.00
2019-03-17T05:09:11.681Z,0.00
2019-03-17T05:10:11.576Z,0.00
2019-03-17T05:11:11.472Z,0.00
2019-03-17T05:12:11.365Z,0.00
2019-03-17T05:13:11.264Z,0.00
2019-03-17T05:14:11.163Z,0.00
2019-03-17T05:15:11.054Z,0.00
2019-03-17T05:16:10.952Z,0.00
2019-03-17T05:17:10.847Z,0.00
2019-03-17T05:18:10.757Z,0.00
2019-03-17T05:19:10.689Z,0.00
2019-03-17T05:20:10.788Z,0.00
2019-03-17T05:21:10.431Z,0.00
2019-03-17T05:22:10.328Z,5.63
2019-03-17T05:23:10.224Z,5.63
2019-03-17T05:24:10.126Z,5.63
2019-03-17T05:25:10.018Z,5.63
2019-03-17T05:26:09.912Z,5.63
2019-03-17T05:27:09.812Z,5.63
2019-03-17T05:28:09.708Z,5.63
2019-03-17T05:29:09.602Z,11.25
2019-03-17T05:30:09.495Z,11.25
2019-03-17T05:31:09.393Z,11.25
2019-03-17T05:32:09.291Z,11.25
2019-03-17T05:33:09.188Z,16.88
2019-03-17T05:34:09.083Z,16.88
2019-03-17T05:35:08.979Z,16.88
2019-03-17T05:36:08.880Z,11.25
2019-03-17T05:37:08.772Z,11.25
2019-03-17T05:38:08.732Z,11.25
2019-03-17T05:39:08.568Z,11.25
2019-03-17T05:40:08.461Z,11.25
2019-03-17T05:41:08.358Z,11.25
2019-03-17T05:42:08.259Z,11.25
2019-03-17T05:43:08.150Z,11.25
2019-03-17T05:44:08.045Z,11.25
2019-03-17T05:45:07.942Z,16.88
2019-03-17T05:46:07.836Z,16.88
2019-03-17T05:47:07.734Z,16.88
2019-03-17T05:48:07.629Z,16.88
2019-03-17T05:49:07.528Z,16.88
2019-03-17T05:50:07.424Z,22.50
2019-03-17T05:51:07.320Z,22.50
2019-03-17T05:52:07.214Z,28.13
2019-03-17T05:53:07.114Z,28.13
2019-03-17T05:54:07.008Z,28.13
2019-03-17T05:55:06.905Z,28.13
2019-03-17T05:56:06.799Z,33.75
2019-03-17T05:57:06.713Z,33.75
2019-03-17T05:58:06.651Z,39.38
2019-03-17T05:59:06.493Z,45.00
2019-03-17T06:00:06.395Z,50.63
2019-03-17T06:01:06.284Z,56.25
2019-03-17T06:02:06.181Z,61.88
2019-03-17T06:03:06.088Z,61.88
2019-03-17T06:04:05.974Z,67.50
2019-03-17T06:05:05.872Z,73.13
2019-03-17T06:06:05.767Z,73.13
2019-03-17T06:07:17.779Z,84.38
2019-03-17T06:08:05.559Z,90.00
2019-03-17T06:09:05.457Z,95.63
2019-03-17T06:10:05.353Z,95.63
2019-03-17T06:11:05.250Z,95.63
2019-03-17T06:12:05.147Z,101.25
2019-03-17T06:13:05.044Z,101.25
2019-03-17T06:14:04.939Z,101.25
2019-03-17T06:15:04.836Z,106.88
2019-03-17T06:16:04.733Z,112.50
2019-03-17T06:17:04.699Z,112.50
2019-03-17T06:18:04.544Z,118.13
2019-03-17T06:19:04.425Z,118.13
2019-03-17T06:20:04.320Z,123.75
2019-03-17T06:21:04.222Z,123.75
2019-03-17T06:22:04.121Z,123.75
2019-03-17T06:23:04.013Z,123.75
2019-03-17T06:24:03.908Z,129.38
2019-03-17T06:25:04.055Z,135.00
2019-03-17T06:26:03.700Z,140.63
2019-03-17T06:27:03.600Z,140.63
2019-03-17T06:28:03.493Z,146.25
2019-03-17T06:29:03.391Z,151.88
2019-03-17T06:30:03.287Z,151.88
2019-03-17T06:31:03.194Z,157.50
2019-03-17T06:32:03.082Z,151.88
2019-03-17T06:33:02.986Z,129.38
2019-03-17T06:34:02.876Z,112.50
2019-03-17T06:35:02.774Z,112.50
2019-03-17T06:36:02.668Z,106.88
2019-03-17T06:37:02.587Z,112.50
2019-03-17T06:38:02.462Z,106.88
2019-03-17T06:39:02.360Z,101.25
2019-03-17T06:40:02.255Z,95.63
2019-03-17T06:41:04.254Z,95.63
2019-03-17T06:42:02.049Z,101.25
2019-03-17T06:43:01.949Z,101.25
2019-03-17T06:44:01.843Z,101.25
2019-03-17T06:45:01.741Z,106.88
2019-03-17T06:46:01.636Z,112.50
2019-03-17T06:47:01.534Z,118.13
2019-03-17T06:48:01.434Z,118.13
2019-03-17T06:49:01.328Z,118.13
2019-03-17T06:50:01.236Z,118.13
2019-03-17T06:51:01.123Z,118.13
2019-03-17T06:52:01.018Z,129.38
2019-03-17T06:53:00.918Z,135.00
2019-03-17T06:54:00.814Z,146.25
2019-03-17T06:55:00.710Z,163.13
2019-03-17T06:56:00.638Z,185.63
2019-03-17T06:57:00.562Z,208.13
2019-03-17T06:58:00.403Z,225.00
2019-03-17T06:59:00.304Z,225.00
2019-03-17T07:00:00.396Z,202.50
2019-03-17T07:01:00.092Z,202.50
2019-03-17T07:01:59.992Z,185.63
2019-03-17T07:02:59.885Z,180.00
2019-03-17T07:03:59.784Z,168.75
2019-03-17T07:04:59.682Z,163.13
2019-03-17T07:05:59.577Z,168.75
2019-03-17T07:06:59.474Z,185.63
2019-03-17T07:07:59.373Z,191.25
2019-03-17T07:08:59.271Z,185.63
2019-03-17T07:09:59.167Z,202.50
2019-03-17T07:10:59.066Z,230.63
2019-03-17T07:11:58.963Z,236.25
2019-03-17T07:12:58.859Z,225.00
2019-03-17T07:13:58.759Z,219.38
2019-03-17T07:14:58.653Z,225.00
2019-03-17T07:15:58.608Z,208.13
2019-03-17T07:16:58.459Z,202.50
2019-03-17T07:17:58.344Z,191.25
2019-03-17T07:18:58.244Z,185.63
2019-03-17T07:19:58.141Z,174.38
2019-03-17T07:20:58.039Z,157.50
2019-03-17T07:21:57.934Z,151.88
2019-03-17T07:22:57.830Z,146.25
2019-03-17T07:23:57.730Z,146.25
2019-03-17T07:24:57.626Z,146.25
2019-03-17T07:25:57.523Z,146.25
2019-03-17T07:26:57.418Z,157.50
2019-03-17T07:27:57.318Z,168.75
2019-03-17T07:28:57.215Z,174.38
2019-03-17T07:29:57.115Z,174.38
2019-03-17T07:30:57.010Z,180.00
2019-03-17T07:31:56.905Z,191.25
2019-03-17T07:32:56.811Z,196.88
2019-03-17T07:33:56.702Z,213.75
2019-03-17T07:34:56.598Z,213.75
2019-03-17T07:35:56.520Z,213.75
2019-03-17T07:36:56.393Z,219.38
2019-03-17T07:37:57.197Z,191.25
2019-03-17T07:38:56.188Z,168.75
2019-03-17T07:39:56.094Z,157.50
2019-03-17T07:40:55.984Z,157.50
2019-03-17T07:41:55.878Z,151.88
2019-03-17T07:42:55.775Z,151.88
2019-03-17T07:43:55.673Z,151.88
2019-03-17T07:44:55.573Z,157.50
2019-03-17T07:45:55.467Z,163.13
2019-03-17T07:46:55.366Z,174.38
2019-03-17T07:47:55.261Z,196.88
2019-03-17T07:48:55.163Z,208.13
2019-03-17T07:49:55.057Z,230.63
2019-03-17T07:50:54.954Z,253.13
2019-03-17T07:51:54.854Z,258.75
2019-03-17T07:52:54.749Z,264.38
2019-03-17T07:53:54.644Z,258.75
2019-03-17T07:54:54.561Z,253.13
2019-03-17T07:55:54.491Z,241.88
2019-03-17T07:56:54.339Z,236.25
2019-03-17T07:57:54.242Z,236.25
2019-03-17T07:58:54.133Z,230.63
2019-03-17T07:59:54.030Z,230.63
2019-03-17T08:00:53.927Z,236.25
2019-03-17T08:01:53.824Z,230.63
2019-03-17T08:02:53.725Z,230.63
2019-03-17T08:03:53.619Z,225.00
2019-03-17T08:04:53.765Z,219.38
2019-03-17T08:05:53.412Z,213.75
2019-03-17T08:06:53.311Z,208.13
2019-03-17T08:07:53.210Z,202.50
2019-03-17T08:08:53.105Z,191.25
2019-03-17T08:09:53.005Z,191.25
2019-03-17T08:10:52.901Z,202.50
2019-03-17T08:11:52.799Z,213.75
2019-03-17T08:12:52.695Z,213.75
2019-03-17T08:13:52.594Z,213.75
2019-03-17T08:14:52.535Z,208.13
2019-03-17T08:15:52.462Z,213.75
2019-03-17T08:16:52.290Z,219.38
2019-03-17T08:17:52.185Z,219.38
2019-03-17T08:18:52.079Z,225.00
2019-03-17T08:19:52.005Z,230.63
2019-03-17T08:20:51.876Z,236.25
2019-03-17T08:21:51.775Z,236.25
2019-03-17T08:22:51.672Z,236.25
2019-03-17T08:23:51.572Z,241.88
2019-03-17T08:24:51.718Z,236.25
2019-03-17T08:25:51.365Z,236.25
2019-03-17T08:26:51.264Z,241.88
2019-03-17T08:27:51.161Z,354.38
2019-03-17T08:28:51.064Z,478.13
2019-03-17T08:29:50.955Z,596.25
2019-03-17T08:30:53.421Z,478.13
2019-03-17T08:31:50.754Z,478.13
2019-03-17T08:32:50.652Z,450.00
2019-03-17T08:33:50.553Z,511.88
2019-03-17T08:34:50.519Z,652.50
2019-03-17T08:35:50.345Z,646.88
2019-03-17T08:36:50.245Z,607.50
2019-03-17T08:37:50.144Z,562.50
2019-03-17T08:38:50.044Z,556.88
2019-03-17T08:39:49.937Z,545.63
2019-03-17T08:40:49.837Z,500.63
2019-03-17T08:41:49.736Z,506.25
2019-03-17T08:42:49.635Z,545.63
2019-03-17T08:43:54.073Z,585.00
2019-03-17T08:44:49.438Z,517.50
2019-03-17T08:45:49.331Z,483.75
2019-03-17T08:46:49.232Z,596.25
2019-03-17T08:47:57.973Z,652.50
2019-03-17T08:48:49.031Z,506.25
2019-03-17T08:49:48.930Z,438.75
2019-03-17T08:50:48.831Z,534.38
2019-03-17T08:51:48.729Z,568.13
2019-03-17T08:52:48.633Z,545.63
2019-03-17T08:53:48.525Z,528.75
2019-03-17T08:54:48.486Z,517.50
2019-03-17T08:55:48.364Z,461.25
2019-03-17T08:56:48.226Z,444.38
2019-03-17T08:57:48.125Z,410.63
2019-03-17T08:58:48.031Z,264.38
2019-03-17T08:59:47.923Z,236.25
2019-03-17T09:00:47.822Z,292.50
2019-03-17T09:01:47.821Z,309.38
2019-03-17T09:02:47.624Z,270.00
2019-03-17T09:03:47.522Z,315.00
2019-03-17T09:04:47.423Z,365.63
2019-03-17T09:05:47.321Z,393.75
2019-03-17T09:06:47.221Z,405.00
2019-03-17T09:07:47.124Z,298.13
2019-03-17T09:08:47.021Z,258.75
2019-03-17T09:09:46.920Z,213.75
2019-03-17T09:10:46.820Z,208.13
2019-03-17T09:11:46.719Z,213.75
2019-03-17T09:12:46.620Z,225.00
2019-03-17T09:13:46.518Z,230.63
2019-03-17T09:14:46.472Z,241.88
2019-03-17T09:15:46.356Z,219.38
2019-03-17T09:16:46.218Z,208.13
2019-03-17T09:17:46.115Z,196.88
2019-03-17T09:18:46.015Z,208.13
2019-03-17T09:19:45.914Z,270.00
2019-03-17T09:20:45.814Z,208.13
2019-03-17T09:21:45.713Z,202.50
2019-03-17T09:22:45.610Z,196.88
2019-03-17T09:23:45.510Z,286.88
2019-03-17T09:24:45.413Z,208.13
2019-03-17T09:25:45.308Z,191.25
2019-03-17T09:26:45.209Z,202.50
2019-03-17T09:27:45.111Z,191.25
2019-03-17T09:28:45.011Z,258.75
2019-03-17T09:29:44.906Z,360.00
2019-03-17T09:30:44.805Z,331.88
2019-03-17T09:31:44.705Z,225.00
2019-03-17T09:32:44.605Z,343.13
2019-03-17T09:33:44.501Z,500.63
2019-03-17T09:34:44.444Z,472.50
2019-03-17T09:35:44.374Z,309.38
2019-03-17T09:36:44.199Z,523.13
2019-03-17T09:37:44.097Z,472.50
2019-03-17T09:38:47.525Z,534.38
2019-03-17T09:39:44.148Z,433.13
2019-03-17T09:40:43.798Z,298.13
2019-03-17T09:41:43.698Z,258.75
2019-03-17T09:42:43.598Z,292.50
2019-03-17T09:43:43.501Z,365.63
2019-03-17T09:44:43.396Z,450.00
2019-03-17T09:45:43.294Z,551.25
2019-03-17T09:46:43.198Z,658.13
2019-03-17T09:47:43.095Z,635.63
2019-03-17T09:48:42.994Z,697.50
2019-03-17T09:49:42.894Z,697.50
2019-03-17T09:50:42.792Z,658.13
2019-03-17T09:51:42.694Z,472.50
2019-03-17T09:52:42.593Z,376.88
2019-03-17T09:53:42.493Z,371.25
2019-03-17T09:54:42.450Z,309.38
2019-03-17T09:55:42.358Z,371.25
2019-03-17T09:56:42.195Z,478.13
2019-03-17T09:57:42.093Z,511.88
2019-03-17T09:58:41.994Z,630.00
2019-03-17T09:59:42.200Z,455.63
2019-03-17T10:00:41.795Z,343.13
2019-03-17T10:01:41.698Z,427.50
2019-03-17T10:02:41.600Z,438.75
2019-03-17T10:03:41.499Z,500.63
2019-03-17T10:04:41.399Z,573.75
2019-03-17T10:05:41.299Z,500.63
2019-03-17T10:06:41.205Z,500.63
2019-03-17T10:07:41.102Z,635.63
2019-03-17T10:08:41.002Z,669.38
2019-03-17T10:09:40.903Z,540.00
2019-03-17T10:10:40.805Z,343.13
2019-03-17T10:11:40.708Z,348.75
2019-03-17T10:12:40.608Z,331.88
2019-03-17T10:13:40.504Z,320.63
2019-03-17T10:14:40.405Z,354.38
2019-03-17T10:15:40.390Z,376.88
2019-03-17T10:16:40.209Z,337.50
2019-03-17T10:17:40.109Z,343.13
2019-03-17T10:18:40.011Z,326.25
2019-03-17T10:19:40.211Z,309.38
2019-03-17T10:20:39.814Z,348.75
2019-03-17T10:21:39.714Z,315.00
2019-03-17T10:22:39.898Z,292.50
2019-03-17T10:23:39.516Z,253.13
2019-03-17T10:24:39.417Z,225.00
2019-03-17T10:25:39.316Z,219.38
2019-03-17T10:26:39.217Z,286.88
2019-03-17T10:27:39.119Z,382.50
2019-03-17T10:28:39.019Z,405.00
2019-03-17T10:29:38.919Z,365.63
2019-03-17T10:30:38.821Z,326.25
2019-03-17T10:31:38.720Z,326.25
2019-03-17T10:32:38.621Z,337.50
2019-03-17T10:33:38.519Z,348.75
2019-03-17T10:34:38.422Z,348.75
2019-03-17T10:35:38.371Z,388.13
2019-03-17T10:36:38.303Z,405.00
2019-03-17T10:37:38.123Z,416.25
2019-03-17T10:38:38.024Z,478.13
2019-03-17T10:39:38.176Z,511.88
2019-03-17T10:40:37.826Z,540.00
2019-03-17T10:41:37.724Z,579.38
2019-03-17T10:42:37.634Z,618.75
2019-03-17T10:43:37.529Z,663.75
2019-03-17T10:44:37.428Z,573.75
2019-03-17T10:45:37.327Z,455.63
2019-03-17T10:46:37.233Z,483.75
2019-03-17T10:47:37.130Z,601.88
2019-03-17T10:48:37.034Z,697.50
2019-03-17T10:49:36.931Z,663.75
2019-03-17T10:50:48.738Z,500.63
2019-03-17T10:51:36.735Z,427.50
2019-03-17T10:52:36.637Z,517.50
2019-03-17T10:53:36.536Z,630.00
2019-03-17T10:54:36.507Z,663.75
2019-03-17T10:55:36.343Z,573.75
2019-03-17T10:56:36.272Z,506.25
2019-03-17T10:57:36.143Z,579.38
2019-03-17T10:58:36.042Z,635.63
2019-03-17T10:59:35.945Z,663.75
2019-03-17T11:00:35.845Z,680.63
2019-03-17T11:01:35.749Z,624.38
2019-03-17T11:02:35.648Z,528.75
2019-03-17T11:03:35.551Z,461.25
2019-03-17T11:04:35.450Z,523.13
2019-03-17T11:05:35.353Z,450.00
2019-03-17T11:06:35.254Z,416.25
2019-03-17T11:07:35.156Z,410.63
2019-03-17T11:08:35.061Z,393.75
2019-03-17T11:09:34.959Z,348.75
2019-03-17T11:10:34.860Z,298.13
2019-03-17T11:11:34.762Z,298.13
2019-03-17T11:12:34.663Z,298.13
2019-03-17T11:13:34.566Z,292.50
2019-03-17T11:14:34.465Z,315.00
2019-03-17T11:15:34.368Z,376.88
2019-03-17T11:16:34.313Z,405.00
2019-03-17T11:17:34.239Z,371.25
2019-03-17T11:18:34.070Z,433.13
2019-03-17T11:19:34.242Z,455.63
2019-03-17T11:20:33.872Z,500.63
2019-03-17T11:21:33.775Z,455.63
2019-03-17T11:22:33.674Z,495.00
2019-03-17T11:23:33.577Z,506.25
2019-03-17T11:24:33.476Z,450.00
2019-03-17T11:25:33.378Z,427.50
2019-03-17T11:26:33.280Z,315.00
2019-03-17T11:27:33.184Z,264.38
2019-03-17T11:28:33.083Z,320.63
2019-03-17T11:29:32.980Z,354.38
2019-03-17T11:30:32.883Z,331.88
2019-03-17T11:31:32.784Z,343.13
2019-03-17T11:32:32.688Z,270.00
2019-03-17T11:33:32.585Z,270.00
2019-03-17T11:34:32.487Z,320.63
2019-03-17T11:35:32.389Z,320.63
2019-03-17T11:36:32.290Z,315.00
2019-03-17T11:37:32.221Z,247.50
2019-03-17T11:38:32.092Z,241.88
2019-03-17T11:39:37.618Z,309.38
2019-03-17T11:40:31.894Z,298.13
2019-03-17T11:41:31.794Z,241.88
2019-03-17T11:42:31.694Z,174.38
2019-03-17T11:43:31.594Z,135.00
2019-03-17T11:44:31.500Z,157.50
2019-03-17T11:45:31.397Z,180.00
2019-03-17T11:46:31.297Z,185.63
2019-03-17T11:47:31.202Z,196.88
2019-03-17T11:48:31.101Z,225.00
2019-03-17T11:49:31.003Z,185.63
2019-03-17T11:50:30.901Z,157.50
2019-03-17T11:51:30.801Z,112.50
2019-03-17T11:52:30.705Z,140.63
2019-03-17T11:53:30.602Z,253.13
2019-03-17T11:54:30.502Z,264.38
2019-03-17T11:55:31.847Z,298.13
2019-03-17T11:56:30.303Z,270.00
2019-03-17T11:57:30.264Z,241.88
2019-03-17T11:58:30.115Z,202.50
2019-03-17T11:59:30.004Z,163.13
2019-03-17T12:00:29.908Z,202.50
2019-03-17T12:01:29.807Z,241.88
2019-03-17T12:02:29.713Z,213.75
2019-03-17T12:03:29.619Z,196.88
2019-03-17T12:04:29.509Z,230.63
2019-03-17T12:05:29.408Z,241.88
2019-03-17T12:06:29.304Z,270.00
2019-03-17T12:07:29.207Z,281.25
2019-03-17T12:08:29.107Z,281.25
2019-03-17T12:09:29.648Z,225.00
2019-03-17T12:10:28.909Z,185.63
2019-03-17T12:11:28.810Z,213.75
2019-03-17T12:12:28.710Z,219.38
2019-03-17T12:13:28.609Z,247.50
2019-03-17T12:14:28.513Z,281.25
2019-03-17T12:15:28.409Z,219.38
2019-03-17T12:16:28.309Z,213.75
2019-03-17T12:17:28.245Z,213.75
2019-03-17T12:18:28.181Z,258.75
2019-03-17T12:19:28.009Z,270.00
2019-03-17T12:20:27.910Z,253.13
2019-03-17T12:21:27.810Z,309.38
2019-03-17T12:22:27.709Z,382.50
2019-03-17T12:23:27.615Z,438.75
2019-03-17T12:24:27.512Z,461.25
2019-03-17T12:25:27.410Z,410.63
2019-03-17T12:26:27.310Z,343.13
2019-03-17T12:27:27.220Z,298.13
2019-03-17T12:28:27.112Z,247.50
2019-03-17T12:29:27.012Z,270.00
2019-03-17T12:30:26.912Z,292.50
2019-03-17T12:31:26.814Z,253.13
2019-03-17T12:32:26.712Z,264.38
2019-03-17T12:33:26.615Z,253.13
2019-03-17T12:34:28.451Z,275.63
2019-03-17T12:35:26.417Z,236.25
2019-03-17T12:36:26.323Z,163.13
2019-03-17T12:37:26.216Z,174.38
2019-03-17T12:38:26.154Z,180.00
2019-03-17T12:39:26.015Z,168.75
2019-03-17T12:40:25.917Z,174.38
2019-03-17T12:41:25.817Z,135.00
2019-03-17T12:42:25.720Z,129.38
2019-03-17T12:43:25.621Z,168.75
2019-03-17T12:44:25.769Z,180.00
2019-03-17T12:45:25.421Z,129.38
2019-03-17T12:46:25.318Z,174.38
2019-03-17T12:47:25.218Z,208.13
2019-03-17T12:48:25.120Z,151.88
2019-03-17T12:49:25.019Z,151.88